Time;durP1;ratioP1;P1;durP2;ratioP2;P2;SDS_P1;SDS_P2;PMS_P1;PMS_P2;Temp;Humidity;BMP_temperature;BMP_pressure;BME280_temperature;BME280_humidity;BME280_pressure;Samples;Min_cycle;Max_cycle;Signal;HPM_P1;HPM_P2
2021/07/20 00:00:24;;;;;;;;;7.75;6.00;;;;;28.27;44.63;101833.13;5062347;28;45442;-78
2021/07/20 00:02:51;;;;;;;;;8.75;7.00;;;;;28.10;44.76;101805.06;5062102;28;45453;-78
2021/07/20 00:05:21;;;;;;;;;5.50;5.50;;;;;28.05;44.64;101798.44;5061810;28;46523;-77
2021/07/20 00:07:51;;;;;;;;;6.50;6.50;;;;;28.17;44.03;101814.78;5062299;28;45257;-78
2021/07/20 00:10:22;;;;;;;;;9.00;5.25;;;;;28.27;44.01;101829.63;5062334;28;45327;-78
2021/07/20 00:12:48;;;;;;;;;8.00;8.00;;;;;28.23;44.82;101826.53;5060656;28;45541;-77
2021/07/20 00:15:15;;;;;;;;;6.75;6.75;;;;;28.16;44.56;101817.63;5061975;28;45367;-77
2021/07/20 00:17:42;;;;;;;;;9.75;7.25;;;;;28.13;44.30;101810.84;5061938;28;45463;-78
2021/07/20 00:20:09;;;;;;;;;8.00;7.25;;;;;28.14;44.66;101804.47;5062127;28;45475;-77
2021/07/20 00:22:34;;;;;;;;;7.25;7.25;;;;;28.14;44.25;101803.63;5061510;28;45422;-77
2021/07/20 00:25:00;;;;;;;;;6.50;6.50;;;;;28.05;44.73;101795.78;5061975;28;45491;-77
2021/07/20 00:27:26;;;;;;;;;7.00;6.50;;;;;28.11;44.49;101801.34;5062063;28;45153;-78
2021/07/20 00:29:51;;;;;;;;;5.67;5.67;;;;;28.19;44.19;101814.56;5064882;28;45470;-78
2021/07/20 00:32:17;;;;;;;;;4.50;4.50;;;;;28.19;44.37;101809.22;5062012;28;45419;-77
2021/07/20 00:34:42;;;;;;;;;6.00;6.00;;;;;28.21;44.46;101811.72;5061773;28;45331;-77
2021/07/20 00:37:07;;;;;;;;;7.25;6.00;;;;;28.20;44.14;101813.56;5069698;28;45248;-77
2021/07/20 00:39:33;;;;;;;;;4.33;4.33;;;;;28.15;44.55;101803.47;5065955;27;45201;-78
2021/07/20 00:41:59;;;;;;;;;5.50;5.50;;;;;28.18;44.25;101810.25;5066381;28;45372;-78
2021/07/20 00:44:25;;;;;;;;;6.00;6.00;;;;;27.98;44.72;101773.53;5061647;28;46523;-78
2021/07/20 00:46:50;;;;;;;;;6.25;5.25;;;;;28.25;44.27;101811.09;5061831;28;45493;-77
2021/07/20 00:49:16;;;;;;;;;6.25;6.00;;;;;28.29;44.13;101827.56;5061828;28;45499;-78
2021/07/20 00:51:42;;;;;;;;;6.33;6.33;;;;;28.24;44.46;101806.78;5060508;28;46081;-77
2021/07/20 00:54:08;;;;;;;;;8.00;7.25;;;;;28.20;44.56;101796.66;5061418;28;45391;-77
2021/07/20 00:56:34;;;;;;;;;7.00;7.00;;;;;28.06;44.06;101773.38;5061609;28;45307;-77
2021/07/20 00:59:00;;;;;;;;;6.00;6.00;;;;;28.29;44.45;101807.00;5060176;28;45475;-77
2021/07/20 01:01:26;;;;;;;;;5.00;4.25;;;;;28.23;44.32;101794.44;5061774;28;45212;-77
2021/07/20 01:03:51;;;;;;;;;5.75;5.75;;;;;28.08;44.68;101770.47;5061253;28;45248;-78
2021/07/20 01:06:20;;;;;;;;;4.25;4.25;;;;;28.07;44.41;101768.84;5061216;28;45239;-78
2021/07/20 01:08:47;;;;;;;;;7.75;5.00;;;;;28.18;44.15;101789.66;5061305;28;45327;-77
2021/07/20 01:11:13;;;;;;;;;5.25;4.75;;;;;28.27;44.58;101811.72;5060733;28;45244;-76
2021/07/20 01:13:39;;;;;;;;;7.00;4.00;;;;;28.00;44.67;101765.31;5061025;28;45380;-77
2021/07/20 01:16:06;;;;;;;;;6.00;6.00;;;;;28.18;44.48;101800.38;5061436;28;45489;-77
2021/07/20 01:18:34;;;;;;;;;6.75;6.00;;;;;28.10;44.29;101792.53;5060766;28;45161;-77
2021/07/20 01:20:59;;;;;;;;;10.00;8.00;;;;;28.20;44.47;101802.84;5060614;28;45236;-78
2021/07/20 01:23:52;;;;;;;;;6.75;6.75;;;;;28.27;44.33;101818.94;5060652;28;45567;-77
2021/07/20 01:26:19;;;;;;;;;6.75;5.00;;;;;28.06;44.00;101783.22;5060228;28;45191;-78
2021/07/20 01:28:46;;;;;;;;;6.50;6.50;;;;;28.14;44.25;101796.44;5061046;28;45255;-78
2021/07/20 01:31:22;;;;;;;;;8.00;6.00;;;;;28.26;44.40;101814.63;5064854;28;45411;-78
2021/07/20 01:33:51;;;;;;;;;4.75;4.75;;;;;28.15;43.98;101794.59;5061127;28;46338;-77
2021/07/20 01:36:17;;;;;;;;;5.75;5.75;;;;;27.99;44.60;101764.50;5061239;28;45344;-77
2021/07/20 01:38:44;;;;;;;;;6.75;5.25;;;;;28.06;44.52;101769.84;5067137;27;45303;-78
2021/07/20 01:41:13;;;;;;;;;5.00;5.00;;;;;28.14;44.08;101790.25;5062408;28;45298;-78
2021/07/20 01:43:42;;;;;;;;;5.75;5.75;;;;;28.26;44.63;101810.06;5080663;28;46370;-77
2021/07/20 01:48:37;;;;;;;;;6.50;6.50;;;;;28.15;44.30;101791.94;5078248;28;68756;-78
2021/07/20 01:51:04;;;;;;;;;4.50;4.50;;;;;28.20;43.79;101805.53;5080861;27;45313;-77
2021/07/20 01:53:31;;;;;;;;;8.25;6.00;;;;;28.13;43.95;101793.97;5064452;28;47259;-78
2021/07/20 01:56:10;;;;;;;;;5.50;5.50;;;;;28.26;44.25;101801.25;5060729;28;45229;-77
2021/07/20 01:58:41;;;;;;;;;7.25;7.25;;;;;28.03;44.59;101767.56;5060534;28;45484;-78
2021/07/20 02:01:10;;;;;;;;;6.00;6.00;;;;;28.18;44.54;101786.97;5059293;28;45596;-78
2021/07/20 02:09:11;;;;;;;;;6.00;6.00;;;;;28.11;43.91;101777.28;5060065;28;45300;-77
2021/07/20 02:11:39;;;;;;;;;4.50;4.50;;;;;28.08;44.13;101765.13;5060230;28;45220;-77
2021/07/20 02:14:09;;;;;;;;;7.00;7.00;;;;;28.16;44.47;101782.84;5060360;28;45384;-78
2021/07/20 02:16:43;;;;;;;;;6.75;5.00;;;;;28.14;44.29;101779.56;5058604;28;45347;-78
2021/07/20 02:19:16;;;;;;;;;5.33;5.00;;;;;28.13;44.36;101777.94;5060576;28;45454;-78
2021/07/20 02:21:46;;;;;;;;;7.50;6.00;;;;;28.15;44.32;101775.88;5067899;28;45295;-78
2021/07/20 02:24:14;;;;;;;;;5.00;5.00;;;;;27.96;43.91;101746.16;5080239;28;45498;-78
2021/07/20 02:26:40;;;;;;;;;6.33;6.33;;;;;28.18;44.28;101772.81;5079179;28;45232;-78
2021/07/20 02:29:06;;;;;;;;;5.00;5.00;;;;;28.17;44.49;101781.84;5080450;28;45350;-78
2021/07/20 02:31:33;;;;;;;;;6.00;6.00;;;;;28.19;44.28;101779.78;5075911;28;45419;-78
2021/07/20 02:34:01;;;;;;;;;6.00;6.00;;;;;28.11;44.00;101770.09;5059981;28;45398;-78
2021/07/20 02:36:27;;;;;;;;;9.00;8.00;;;;;28.10;44.05;101759.59;5044207;28;45212;-78
2021/07/20 02:38:54;;;;;;;;;8.50;6.25;;;;;28.15;44.42;101773.19;5075218;28;45309;-78
2021/07/20 02:41:21;;;;;;;;;6.75;6.75;;;;;28.15;43.93;101774.03;5063910;28;45533;-78
2021/07/20 02:43:48;;;;;;;;;5.00;4.67;;;;;28.25;44.75;101788.88;5080024;28;46373;-78
2021/07/20 02:46:16;;;;;;;;;8.25;6.75;;;;;28.25;44.51;101787.03;5080111;28;45239;-77
2021/07/20 02:48:42;;;;;;;;;7.00;5.75;;;;;28.25;44.60;101787.03;5080581;27;45182;-78
2021/07/20 02:51:13;;;;;;;;;5.75;5.00;;;;;28.21;44.07;101785.75;5079576;28;45499;-78
2021/07/20 02:53:41;;;;;;;;;5.33;4.67;;;;;28.00;44.74;101747.41;5081041;28;46231;-78
2021/07/20 02:56:10;;;;;;;;;6.75;6.75;;;;;28.15;44.39;101774.03;5083581;28;45274;-78
2021/07/20 02:58:38;;;;;;;;;5.25;5.25;;;;;28.03;43.98;101751.53;5078785;28;45463;-78
2021/07/20 03:01:05;;;;;;;;;6.75;5.75;;;;;28.11;43.81;101769.25;5063498;28;45328;-78
2021/07/20 03:03:30;;;;;;;;;6.25;6.25;;;;;27.84;43.84;101727.19;5062951;27;45402;-78
2021/07/20 03:05:59;;;;;;;;;4.75;4.75;;;;;28.19;43.94;101787.81;5063261;28;45173;-77
2021/07/20 03:08:28;;;;;;;;;7.25;6.25;;;;;28.09;44.20;101768.63;5063215;28;45291;-78
2021/07/20 03:10:56;;;;;;;;;6.33;5.33;;;;;28.23;44.00;101791.75;5063260;28;45466;-78
2021/07/20 03:13:24;;;;;;;;;8.00;5.00;;;;;28.21;43.85;101796.47;5062634;28;45742;-78
2021/07/20 03:15:49;;;;;;;;;9.25;7.00;;;;;28.10;44.34;101770.28;5062066;28;45636;-77
2021/07/20 03:18:15;;;;;;;;;6.50;6.50;;;;;28.11;44.04;101774.59;5062915;28;45522;-78
2021/07/20 03:20:43;;;;;;;;;8.25;5.75;;;;;28.05;44.67;101760.19;5063350;28;45502;-78
2021/07/20 03:23:10;;;;;;;;;7.75;5.50;;;;;28.11;44.21;101774.59;5062321;28;45562;-78
2021/07/20 03:25:36;;;;;;;;;7.00;5.75;;;;;28.15;44.55;101778.56;5063051;28;45248;-78
2021/07/20 03:28:04;;;;;;;;;5.75;5.75;;;;;27.96;44.55;101751.50;5062169;28;45312;-77
2021/07/20 03:30:32;;;;;;;;;8.25;5.50;;;;;28.14;44.62;101776.88;5066633;28;45285;-78
2021/07/20 03:33:00;;;;;;;;;4.25;4.25;;;;;28.17;44.58;101781.84;5062638;28;45335;-78
2021/07/20 03:35:28;;;;;;;;;5.00;5.00;;;;;28.23;44.07;101794.44;5060743;28;45260;-78
2021/07/20 03:37:54;;;;;;;;;4.75;4.50;;;;;28.00;44.10;101758.09;5074316;28;45234;-77
2021/07/20 03:40:21;;;;;;;;;6.50;5.50;;;;;28.13;44.40;101778.72;5063022;28;45292;-78
2021/07/20 03:42:47;;;;;;;;;6.50;6.50;;;;;28.18;44.62;101791.53;5078575;28;45624;-77
2021/07/20 03:45:13;;;;;;;;;3.75;3.25;;;;;28.13;44.06;101776.06;5083029;28;45302;-77
2021/07/20 03:47:41;;;;;;;;;4.75;4.00;;;;;28.19;44.33;101790.50;5083001;27;45492;-77
2021/07/20 03:50:08;;;;;;;;;5.50;5.50;;;;;28.13;44.05;101777.94;5083204;28;45267;-78
2021/07/20 03:52:36;;;;;;;;;6.00;6.00;;;;;28.23;44.55;101785.56;5079494;28;46512;-77
2021/07/20 03:55:03;;;;;;;;;7.75;6.50;;;;;28.23;44.70;101793.59;5062861;28;45462;-77
2021/07/20 03:57:29;;;;;;;;;8.50;6.25;;;;;28.12;44.33;101774.44;5061740;28;45521;-77
2021/07/20 03:59:58;;;;;;;;;5.00;4.50;;;;;28.21;44.44;101790.31;5062380;28;45405;-77
2021/07/20 04:02:27;;;;;;;;;4.00;4.00;;;;;28.10;44.24;101770.28;5061912;28;46868;-78
2021/07/20 04:04:53;;;;;;;;;6.50;5.25;;;;;28.18;44.10;101783.50;5061848;28;45452;-78
2021/07/20 04:07:19;;;;;;;;;5.00;5.00;;;;;28.01;44.68;101758.94;5061741;28;45390;-77
2021/07/20 04:09:48;;;;;;;;;9.50;7.50;;;;;28.21;44.13;101793.78;5062332;28;45440;-77
2021/07/20 04:12:14;;;;;;;;;5.25;5.25;;;;;28.10;44.22;101778.31;5061827;28;45608;-78
2021/07/20 04:14:45;;;;;;;;;5.25;5.25;;;;;28.20;44.42;101791.31;5062216;28;45293;-77
2021/07/20 04:17:13;;;;;;;;;4.50;4.50;;;;;28.06;43.92;101767.19;5062112;28;45306;-78
2021/07/20 04:19:40;;;;;;;;;7.50;6.25;;;;;28.12;44.48;101784.28;5062026;28;45458;-78
2021/07/20 04:22:06;;;;;;;;;8.00;6.50;;;;;28.09;44.01;101774.00;5061715;28;45439;-77
2021/07/20 04:24:32;;;;;;;;;5.67;5.67;;;;;28.22;44.55;101800.81;5062162;28;45331;-78
2021/07/20 04:27:00;;;;;;;;;5.50;5.50;;;;;28.16;44.00;101788.22;5062076;28;45473;-78
2021/07/20 04:29:27;;;;;;;;;5.50;5.50;;;;;28.21;43.82;101806.38;5065434;28;45228;-78
2021/07/20 04:32:05;;;;;;;;;7.67;5.00;;;;;28.03;44.54;101776.44;5062695;27;46168;-78
2021/07/20 04:34:35;;;;;;;;;5.50;5.50;;;;;28.04;44.04;101770.06;5061483;28;45499;-78
2021/07/20 04:37:01;;;;;;;;;5.25;5.25;;;;;28.15;44.47;101799.94;5067450;28;45256;-78
2021/07/20 04:39:28;;;;;;;;;6.00;5.25;;;;;28.09;44.11;101790.03;5066611;27;45288;-78
2021/07/20 04:41:54;;;;;;;;;7.00;7.00;;;;;28.14;43.87;101800.97;5069219;28;47794;-78
2021/07/20 04:44:20;;;;;;;;;5.00;5.00;;;;;28.03;44.23;101784.47;5080532;28;45413;-78
2021/07/20 04:46:47;;;;;;;;;7.00;6.00;;;;;28.05;44.30;101785.06;5081083;28;45311;-78
2021/07/20 04:49:14;;;;;;;;;5.33;5.33;;;;;28.14;43.95;101792.94;5082087;28;45344;-78
2021/07/20 04:51:41;;;;;;;;;6.50;6.00;;;;;28.06;43.99;101789.41;5081494;28;45525;-78
2021/07/20 04:54:08;;;;;;;;;6.75;6.25;;;;;28.05;44.00;101785.06;5080208;28;45255;-78
2021/07/20 04:56:34;;;;;;;;;6.50;5.50;;;;;28.13;44.30;101802.81;5082203;28;45209;-78
2021/07/20 04:58:59;;;;;;;;;6.50;6.50;;;;;27.92;44.61;101771.66;5097286;27;45551;-78
2021/07/20 05:01:25;;;;;;;;;4.00;4.00;;;;;28.15;44.07;101806.13;5081888;28;45341;-78
2021/07/20 05:03:51;;;;;;;;;6.00;6.00;;;;;28.21;44.27;101811.72;5081819;28;45450;-78
2021/07/20 05:06:19;;;;;;;;;5.67;5.00;;;;;28.21;44.13;101815.19;5082119;27;45307;-77
2021/07/20 05:08:44;;;;;;;;;6.00;6.00;;;;;28.10;44.56;101795.19;5079688;28;45413;-78
2021/07/20 05:11:12;;;;;;;;;8.33;6.00;;;;;27.97;44.35;101782.59;5081243;28;45613;-78
2021/07/20 05:13:38;;;;;;;;;6.00;6.00;;;;;28.15;44.10;101814.16;5078518;28;45267;-78
2021/07/20 05:16:05;;;;;;;;;6.50;5.25;;;;;28.22;44.43;101821.38;5059615;28;45196;-78
2021/07/20 05:18:34;;;;;;;;;6.00;5.25;;;;;27.94;44.04;101775.78;5059865;28;45355;-77
2021/07/20 05:20:59;;;;;;;;;4.00;4.00;;;;;28.05;43.91;101803.00;5060883;28;46335;-77
2021/07/20 05:23:26;;;;;;;;;7.00;5.50;;;;;28.04;44.43;101793.31;5060764;28;45298;-78
2021/07/20 05:25:56;;;;;;;;;6.00;6.00;;;;;28.17;44.06;101816.63;5061430;28;45257;-78
2021/07/20 05:28:26;;;;;;;;;6.50;5.75;;;;;28.05;44.04;101797.66;5059776;28;45473;-76
2021/07/20 05:30:59;;;;;;;;;6.00;5.00;;;;;28.23;44.62;101831.06;5064104;28;47705;-70
2021/07/20 05:33:26;;;;;;;;;6.00;6.00;;;;;28.13;44.23;101816.19;5060716;28;45339;-74
2021/07/20 05:36:00;;;;;;;;;3.50;3.50;;;;;28.23;44.69;101831.06;5061112;28;45251;-75
2021/07/20 05:38:26;;;;;;;;;6.25;5.00;;;;;28.17;44.42;101819.31;5071819;28;45413;-76
2021/07/20 05:40:55;;;;;;;;;6.50;6.00;;;;;28.13;44.54;101818.84;5059021;28;47090;-77
2021/07/20 05:43:21;;;;;;;;;3.50;3.50;;;;;28.14;44.44;101817.00;5080843;28;45224;-74
2021/07/20 05:45:47;;;;;;;;;6.50;5.00;;;;;28.24;43.92;101833.53;5079912;28;45284;-72
2021/07/20 05:48:22;;;;;;;;;6.50;5.25;;;;;28.21;44.62;101833.13;5081372;28;45308;-72
2021/07/20 05:50:54;;;;;;;;;8.00;5.75;;;;;28.18;44.12;101829.00;5074691;27;46881;-73
2021/07/20 05:53:22;;;;;;;;;6.00;4.67;;;;;28.11;44.35;101822.75;5073269;28;45456;-73
2021/07/20 05:55:53;;;;;;;;;7.50;5.75;;;;;28.15;44.35;101824.84;5077166;27;45342;-73
2021/07/20 05:58:22;;;;;;;;;5.00;5.00;;;;;28.10;44.82;101816.59;5060317;28;45169;-74
2021/07/20 06:00:51;;;;;;;;;7.25;7.25;;;;;28.28;44.52;101839.31;5073387;28;46268;-74
2021/07/20 06:03:18;;;;;;;;;6.75;6.00;;;;;28.27;44.42;101843.00;5060581;28;45332;-74
2021/07/20 06:05:45;;;;;;;;;8.50;7.00;;;;;28.30;44.23;101839.94;5068042;28;45222;-74
2021/07/20 06:08:15;;;;;;;;;7.50;7.25;;;;;28.31;44.52;101846.13;5068450;27;45433;-73
2021/07/20 06:10:41;;;;;;;;;6.75;6.75;;;;;28.23;44.35;101834.56;5066531;28;46375;-74
2021/07/20 06:13:09;;;;;;;;;9.00;8.00;;;;;28.23;44.22;101833.75;5068712;28;45157;-75
2021/07/20 06:15:36;;;;;;;;;8.50;7.75;;;;;28.26;44.52;101833.34;5065760;28;45231;-74
2021/07/20 06:18:01;;;;;;;;;9.00;7.75;;;;;28.31;44.45;101835.41;5068725;28;45464;-74
2021/07/20 06:20:27;;;;;;;;;8.00;8.00;;;;;28.18;44.41;101815.63;5071230;28;46415;-74
2021/07/20 06:22:55;;;;;;;;;7.00;7.00;;;;;28.25;44.38;101821.81;5066730;28;45370;-72
2021/07/20 06:25:24;;;;;;;;;7.25;7.25;;;;;28.21;44.15;101814.38;5059041;27;45509;-82
2021/07/20 06:27:51;;;;;;;;;8.50;8.00;;;;;28.31;44.37;101838.09;5058746;28;45244;-80
2021/07/20 06:30:19;;;;;;;;;7.25;5.25;;;;;28.21;44.22;101828.56;5064978;28;47257;-80
2021/07/20 06:32:45;;;;;;;;;6.50;6.50;;;;;28.32;44.50;101842.41;5064228;28;45456;-80
2021/07/20 06:35:15;;;;;;;;;6.25;6.25;;;;;28.41;44.78;101857.28;5059813;28;45279;-80
2021/07/20 06:37:45;;;;;;;;;6.25;6.00;;;;;28.28;44.67;101836.66;5072031;28;45231;-80
2021/07/20 06:40:14;;;;;;;;;6.50;5.75;;;;;28.27;44.47;101829.63;5060097;28;45363;-79
2021/07/20 06:42:41;;;;;;;;;6.00;6.00;;;;;28.42;44.65;101866.94;5075072;28;45227;-80
2021/07/20 06:45:07;;;;;;;;;6.25;5.25;;;;;28.18;44.77;101832.47;5078807;28;45449;-80
2021/07/20 06:47:39;;;;;;;;;6.00;6.00;;;;;28.29;44.65;101843.63;5080098;28;45428;-80
2021/07/20 06:50:07;;;;;;;;;7.00;7.00;;;;;28.27;44.51;101841.16;5080425;28;46366;-81
2021/07/20 06:52:32;;;;;;;;;6.50;5.50;;;;;28.33;45.04;101858.28;5079776;28;45315;-80
2021/07/20 06:55:00;;;;;;;;;6.25;6.00;;;;;28.28;45.11;101844.66;5080395;28;45318;-80
2021/07/20 06:57:26;;;;;;;;;6.00;6.00;;;;;28.24;44.48;101848.75;5080055;28;45591;-80
2021/07/20 06:59:55;;;;;;;;;8.00;6.00;;;;;28.28;44.62;101853.53;5079980;28;45338;-80
2021/07/20 07:02:22;;;;;;;;;7.00;6.00;;;;;28.34;45.11;101862.59;5078790;28;45436;-81
2021/07/20 07:04:56;;;;;;;;;7.25;7.25;;;;;28.36;45.13;101862.41;5080410;28;45356;-81
2021/07/20 07:07:23;;;;;;;;;7.00;7.00;;;;;28.29;44.90;101851.66;5079662;28;45380;-80
2021/07/20 07:09:50;;;;;;;;;6.00;6.00;;;;;28.30;45.19;101858.66;5079565;28;46447;-80
2021/07/20 07:12:17;;;;;;;;;7.00;7.00;;;;;28.28;45.01;101858.03;5078284;28;45406;-80
2021/07/20 07:14:44;;;;;;;;;8.50;7.00;;;;;28.26;45.17;101854.75;5078709;28;45279;-80
2021/07/20 07:17:10;;;;;;;;;5.00;5.00;;;;;28.20;45.40;101836.81;5079760;28;45153;-80
2021/07/20 07:19:36;;;;;;;;;6.50;6.50;;;;;28.23;45.07;101849.78;5079704;27;45738;-80
2021/07/20 07:22:01;;;;;;;;;7.00;7.00;;;;;28.11;44.67;101822.75;5079391;28;45327;-80
2021/07/20 07:24:28;;;;;;;;;6.25;6.25;;;;;28.07;44.52;101825.84;5080072;28;45375;-80
2021/07/20 07:26:54;;;;;;;;;6.00;6.00;;;;;28.38;44.95;101871.06;5079819;28;45337;-80
2021/07/20 07:29:21;;;;;;;;;5.50;5.25;;;;;28.05;44.78;101824.41;5079646;28;46268;-81
2021/07/20 07:31:48;;;;;;;;;6.75;6.75;;;;;28.14;44.61;101835.75;5059821;27;45228;-80
2021/07/20 07:34:15;;;;;;;;;5.00;4.00;;;;;28.32;44.98;101866.47;5059634;28;45300;-80
2021/07/20 07:36:44;;;;;;;;;7.00;7.00;;;;;28.31;45.01;101868.34;5058742;28;45541;-80
2021/07/20 07:39:11;;;;;;;;;7.00;7.00;;;;;28.27;44.82;101856.38;5059481;28;46493;-80
2021/07/20 07:41:39;;;;;;;;;7.25;7.25;;;;;28.39;44.67;101870.03;5068537;27;45338;-80
2021/07/20 07:44:06;;;;;;;;;5.00;5.00;;;;;28.29;45.10;101860.50;5083041;28;45621;-81
2021/07/20 07:46:35;;;;;;;;;8.00;6.00;;;;;28.31;44.91;101854.97;5081680;28;45513;-80
2021/07/20 07:49:01;;;;;;;;;8.50;8.50;;;;;28.32;44.69;101859.28;5083066;28;46449;-80
2021/07/20 07:51:27;;;;;;;;;7.50;5.50;;;;;28.27;45.25;101851.88;5081602;28;45473;-80
2021/07/20 07:53:58;;;;;;;;;6.50;6.00;;;;;28.44;44.50;101872.94;5082798;28;45433;-80
2021/07/20 07:56:33;;;;;;;;;6.75;6.00;;;;;28.31;45.18;101859.50;5082655;28;45327;-80
2021/07/20 07:59:00;;;;;;;;;8.75;8.00;;;;;28.37;44.78;101862.19;5081932;28;45404;-80
2021/07/20 08:01:28;;;;;;;;;6.00;6.00;;;;;28.39;44.59;101864.69;5082943;28;45304;-80
2021/07/20 08:03:56;;;;;;;;;6.75;5.75;;;;;28.39;44.91;101862.81;5082815;27;45201;-80
2021/07/20 08:06:25;;;;;;;;;6.00;6.00;;;;;28.43;44.97;101881.16;5082976;28;45373;-80
2021/07/20 08:08:55;;;;;;;;;6.00;6.00;;;;;28.16;45.09;101831.00;5082285;28;45612;-80
2021/07/20 08:11:23;;;;;;;;;8.00;6.50;;;;;28.36;44.52;101863.25;5076530;28;45394;-80
2021/07/20 08:13:51;;;;;;;;;4.00;4.00;;;;;28.43;44.77;101879.31;5082270;28;45342;-80
2021/07/20 08:16:18;;;;;;;;;7.00;7.00;;;;;28.26;45.11;101852.88;5082069;28;45742;-79
2021/07/20 08:18:44;;;;;;;;;6.25;6.00;;;;;28.36;45.03;101871.25;5082620;28;46682;-80
2021/07/20 08:21:10;;;;;;;;;9.00;6.00;;;;;28.32;44.70;101853.94;5082065;28;45275;-80
2021/07/20 08:23:36;;;;;;;;;8.50;7.00;;;;;28.27;44.59;101851.88;5080957;28;45227;-80
2021/07/20 08:26:11;;;;;;;;;5.00;5.00;;;;;28.29;45.01;101846.31;5082543;28;45643;-80
2021/07/20 08:28:46;;;;;;;;;6.25;6.25;;;;;28.44;45.42;101870.28;5081936;28;46210;-80
2021/07/20 08:31:13;;;;;;;;;7.00;5.67;;;;;28.43;44.87;101868.59;5068620;28;45369;-80
2021/07/20 08:33:39;;;;;;;;;5.75;5.75;;;;;28.27;44.91;101848.34;5069119;28;45354;-80
2021/07/20 08:36:08;;;;;;;;;8.50;6.75;;;;;28.43;45.17;101873.97;5081079;28;45310;-80
2021/07/20 08:38:35;;;;;;;;;5.00;5.00;;;;;28.33;44.67;101854.78;5073357;28;47403;-80
2021/07/20 08:41:09;;;;;;;;;6.00;6.00;;;;;28.46;45.29;101881.63;5063065;28;45150;-80
2021/07/20 08:43:56;;;;;;;;;7.00;6.50;;;;;28.46;45.41;101875.44;5077255;28;45185;-80
2021/07/20 08:46:40;;;;;;;;;5.75;5.75;;;;;28.45;45.17;101871.94;5061559;28;45646;-80
2021/07/20 08:49:32;;;;;;;;;5.33;5.33;;;;;28.44;45.28;101869.44;5060504;28;46914;-80
2021/07/20 08:52:11;;;;;;;;;8.50;7.00;;;;;28.42;44.70;101866.16;5059057;28;45284;-80
2021/07/20 08:54:51;;;;;;;;;6.00;5.75;;;;;28.44;44.72;101864.09;5068752;28;45418;-80
2021/07/20 08:57:26;;;;;;;;;9.25;7.25;;;;;28.42;44.80;101858.91;5080383;28;45209;-80
2021/07/20 09:00:01;;;;;;;;;8.00;8.00;;;;;28.42;44.69;101853.56;5076479;28;48252;-80
2021/07/20 09:02:34;;;;;;;;;6.67;6.00;;;;;28.50;44.99;101856.09;5060168;28;45493;-80
2021/07/20 09:05:18;;;;;;;;;7.25;6.25;;;;;28.35;45.18;101833.97;5061747;28;45370;-81
2021/07/20 09:08:17;;;;;;;;;7.25;6.50;;;;;28.51;45.36;101854.25;5069160;28;45383;-80
2021/07/20 09:10:50;;;;;;;;;5.33;5.33;;;;;28.33;44.49;101833.38;5053178;28;45540;-80
2021/07/20 09:13:21;;;;;;;;;5.67;5.67;;;;;28.49;45.31;101857.16;5061420;28;45299;-80
2021/07/20 09:15:59;;;;;;;;;8.00;8.00;;;;;28.54;45.02;101861.06;5068806;28;45517;-80
2021/07/20 09:18:36;;;;;;;;;7.00;6.00;;;;;28.35;44.64;101834.81;5081528;28;45343;-80
2021/07/20 09:21:06;;;;;;;;;9.00;7.25;;;;;28.42;45.07;101845.53;5080285;28;47086;-80
2021/07/20 09:24:00;;;;;;;;;7.75;7.75;;;;;28.51;45.23;101856.94;5096952;27;45300;-80
2021/07/20 09:26:32;;;;;;;;;7.50;7.50;;;;;28.55;44.93;101863.53;5079155;27;45310;-80
2021/07/20 09:29:06;;;;;;;;;8.25;6.75;;;;;28.28;44.74;101808.03;5062079;28;45201;-80
2021/07/20 09:31:36;;;;;;;;;5.50;5.50;;;;;28.56;45.04;101864.34;5071884;28;45373;-80
2021/07/20 09:34:40;;;;;;;;;5.67;5.67;;;;;28.56;44.71;101859.00;5060512;28;45414;-81
2021/07/20 09:37:15;;;;;;;;;6.00;6.00;;;;;28.44;45.16;101832.81;5065883;28;45232;-80
2021/07/20 09:39:58;;;;;;;;;7.25;7.00;;;;;28.53;45.05;101860.22;5064455;28;45289;-81
2021/07/20 09:42:45;;;;;;;;;9.50;9.50;;;;;28.53;45.27;101852.19;5074166;28;45737;-81
2021/07/20 09:45:19;;;;;;;;;6.25;6.25;;;;;28.46;45.25;101841.47;5081411;27;45450;-80
2021/07/20 09:48:18;;;;;;;;;7.00;7.00;;;;;28.21;45.39;101807.16;5064721;28;45434;-81
2021/07/20 09:50:46;;;;;;;;;7.50;6.50;;;;;28.32;45.30;101826.34;5060595;28;45319;-81
2021/07/20 09:53:48;;;;;;;;;6.00;6.00;;;;;28.53;44.84;101838.81;5060427;28;46065;-81
2021/07/20 09:56:25;;;;;;;;;5.25;5.25;;;;;28.54;45.33;101845.00;5060480;28;45309;-80
2021/07/20 09:59:08;;;;;;;;;7.25;6.25;;;;;28.52;44.65;101840.66;5060682;28;45295;-81
2021/07/20 10:01:45;;;;;;;;;7.00;6.75;;;;;28.37;44.87;101814.03;5060627;28;45599;-81
2021/07/20 10:04:18;;;;;;;;;6.75;6.75;;;;;28.33;45.19;101811.97;5060120;28;46358;-81
2021/07/20 10:07:00;;;;;;;;;7.00;7.00;;;;;28.53;44.66;101841.50;5058771;28;45373;-81
2021/07/20 10:09:49;;;;;;;;;7.00;7.00;;;;;28.54;44.71;101839.66;5066567;28;45445;-81
2021/07/20 10:12:43;;;;;;;;;7.25;5.50;;;;;28.54;45.30;101837.81;5073487;27;45500;-81
2021/07/20 10:15:10;;;;;;;;;7.00;7.00;;;;;28.39;44.92;101817.31;5059856;28;46287;-81
2021/07/20 10:18:02;;;;;;;;;8.00;8.00;;;;;28.46;45.27;101827.25;5060588;28;45331;-81
2021/07/20 10:20:43;;;;;;;;;10.25;7.00;;;;;28.45;44.98;101823.75;5060291;27;45259;-80
2021/07/20 10:23:15;;;;;;;;;7.00;7.00;;;;;28.42;45.29;101816.09;5058740;28;45411;-80
2021/07/20 10:26:07;;;;;;;;;7.75;5.50;;;;;28.35;45.26;101802.69;5058991;28;47246;-81
2021/07/20 10:28:50;;;;;;;;;6.50;6.25;;;;;28.58;44.69;101833.69;5058414;28;45441;-80
2021/07/20 10:31:45;;;;;;;;;8.00;8.00;;;;;28.59;44.63;101830.00;5062770;28;45268;-81
2021/07/20 10:34:17;;;;;;;;;7.25;6.25;;;;;28.43;44.83;101809.72;5058845;28;45235;-80
2021/07/20 10:36:51;;;;;;;;;8.25;7.50;;;;;28.51;45.03;101822.97;5064168;28;45333;-80
2021/07/20 10:39:20;;;;;;;;;5.75;5.75;;;;;28.60;44.53;101830.78;5075611;28;45756;-80
2021/07/20 10:42:02;;;;;;;;;7.67;7.00;;;;;28.33;45.12;101793.22;5067551;28;45360;-81
2021/07/20 10:44:47;;;;;;;;;7.00;7.00;;;;;28.54;45.23;101827.09;5080092;28;45416;-81
2021/07/20 10:47:17;;;;;;;;;9.00;7.00;;;;;28.51;45.03;101816.78;5079824;28;46558;-81
2021/07/20 10:49:54;;;;;;;;;8.25;7.00;;;;;28.46;44.46;101820.06;5079854;28;45346;-81
2021/07/20 10:52:42;;;;;;;;;7.00;7.00;;;;;28.62;45.13;101840.28;5079732;27;45334;-79
2021/07/20 10:55:21;;;;;;;;;8.25;7.75;;;;;28.42;44.38;101805.38;5079177;28;45263;-81
2021/07/20 10:57:56;;;;;;;;;7.75;6.75;;;;;28.46;45.06;101814.72;5079562;28;46193;-81
2021/07/20 11:00:26;;;;;;;;;7.00;7.00;;;;;28.49;45.19;101808.13;5078045;28;45992;-81
2021/07/20 11:03:13;;;;;;;;;7.00;6.75;;;;;28.60;44.87;101831.63;5080445;28;45220;-81
2021/07/20 11:05:45;;;;;;;;;7.00;7.00;;;;;28.43;45.13;101815.09;5079241;27;45332;-81
2021/07/20 11:08:12;;;;;;;;;8.00;7.00;;;;;28.40;44.87;101800.25;5079847;28;45647;-81
2021/07/20 11:10:47;;;;;;;;;8.25;8.25;;;;;28.26;45.10;101771.81;5079353;28;45639;-81
2021/07/20 11:13:17;;;;;;;;;9.00;6.75;;;;;28.47;45.01;101804.84;5079763;28;45224;-81
2021/07/20 11:15:51;;;;;;;;;7.25;7.25;;;;;28.49;44.52;101797.44;5082271;28;45391;-81
2021/07/20 11:18:17;;;;;;;;;12.25;10.00;;;;;28.46;44.92;101801.34;5083439;28;45676;-81
2021/07/20 11:20:44;;;;;;;;;6.50;6.50;;;;;28.49;44.24;101800.94;5083590;28;45471;-81
2021/07/20 11:23:12;;;;;;;;;7.75;7.75;;;;;28.44;44.97;101789.97;5098966;27;45351;-82
2021/07/20 11:25:39;;;;;;;;;8.25;8.25;;;;;28.57;44.67;101804.44;5083619;28;45242;-81
2021/07/20 11:28:05;;;;;;;;;8.00;6.75;;;;;28.48;44.84;101801.13;5082435;28;46193;-81
2021/07/20 11:30:35;;;;;;;;;7.00;6.25;;;;;28.43;44.59;101784.81;5075115;28;45367;-82
2021/07/20 11:33:26;;;;;;;;;6.50;6.50;;;;;28.60;45.09;101815.56;5063077;28;45258;-82
2021/07/20 11:35:56;;;;;;;;;7.75;7.25;;;;;28.54;45.06;101799.50;5063147;28;45327;-81
2021/07/20 11:38:26;;;;;;;;;7.00;7.00;;;;;28.40;45.20;101780.69;5074773;28;45273;-81
2021/07/20 11:41:14;;;;;;;;;9.25;8.50;;;;;28.57;45.05;101805.28;5062834;28;45426;-81
2021/07/20 11:44:00;;;;;;;;;7.00;6.75;;;;;28.32;45.07;101756.78;5071347;28;45504;-82
2021/07/20 11:46:34;;;;;;;;;7.00;7.00;;;;;28.62;44.51;101810.81;5083059;28;45308;-81